Time;durP1;ratioP1;P1;durP2;ratioP2;P2;SDS_P1;SDS_P2;PMS_P1;PMS_P2;Temp;Humidity;BMP_temperature;BMP_pressure;BME280_temperature;BME280_humidity;BME280_pressure;Samples;Min_cycle;Max_cycle;Signal;HPM_P1;HPM_P2
2021/01/05 00:01:30;;;;;;;7.70;6.75;;;;;;;1.89;88.75;101832.94;4984135;28;20027;-90
2021/01/05 00:03:55;;;;;;;9.63;7.70;;;;;;;1.57;88.77;101787.06;4968462;28;20500;-90
2021/01/05 00:06:21;;;;;;;8.23;6.78;;;;;;;1.89;88.20;101851.38;4969803;28;20365;-90
2021/01/05 00:08:46;;;;;;;8.77;6.63;;;;;;;1.97;88.51;101838.69;4967285;28;20039;-89
2021/01/05 00:11:12;;;;;;;8.68;6.38;;;;;;;1.93;88.44;101849.44;4966904;28;20533;-89
2021/01/05 00:13:37;;;;;;;7.22;6.20;;;;;;;1.94;88.37;101841.47;4972373;28;20033;-90
2021/01/05 00:16:03;;;;;;;8.02;6.70;;;;;;;1.89;88.85;101840.84;4966274;28;20047;-90
2021/01/05 00:18:28;;;;;;;10.80;6.47;;;;;;;1.89;89.16;101845.22;4962052;28;20035;-89
2021/01/05 00:20:54;;;;;;;8.82;6.88;;;;;;;1.46;88.96;101772.63;4959076;28;20031;-74
2021/01/05 00:23:19;;;;;;;7.63;6.90;;;;;;;1.71;89.13;101821.47;4969247;28;20490;-89
2021/01/05 00:25:45;;;;;;;6.90;6.13;;;;;;;1.99;88.67;101846.50;4969472;28;20037;-90
2021/01/05 00:28:10;;;;;;;7.60;6.60;;;;;;;1.99;88.48;101843.88;4970533;28;20035;-89
2021/01/05 00:30:36;;;;;;;7.65;6.85;;;;;;;1.96;88.78;101842.25;4969533;28;20773;-89
2021/01/05 00:33:01;;;;;;;7.72;6.20;;;;;;;1.72;89.07;101804.75;4954936;28;20042;-89
2021/01/05 00:35:29;;;;;;;8.02;6.97;;;;;;;1.93;88.85;101852.91;4966957;28;20034;-74
2021/01/05 00:37:55;;;;;;;7.68;6.40;;;;;;;1.91;88.97;101838.13;4969997;28;20112;-89
2021/01/05 00:40:21;;;;;;;6.97;6.28;;;;;;;1.90;88.99;101845.16;4967547;28;20043;-88
2021/01/05 00:42:47;;;;;;;9.32;6.97;;;;;;;1.52;89.14;101779.38;4966318;28;20584;-89
2021/01/05 00:45:17;;;;;;;11.30;6.43;;;;;;;1.67;89.09;101804.97;4967853;28;20027;-89
2021/01/05 00:47:42;;;;;;;9.30;6.43;;;;;;;1.92;88.98;101851.19;4951605;28;20490;-89
2021/01/05 00:50:08;;;;;;;7.50;6.25;;;;;;;1.84;88.91;101834.94;4953345;28;20038;-89
2021/01/05 00:52:34;;;;;;;9.20;6.55;;;;;;;1.91;89.57;101852.13;4953340;28;20082;-90
2021/01/05 00:54:59;;;;;;;7.75;6.47;;;;;;;1.87;89.28;101845.31;4976401;28;20033;-91
2021/01/05 00:57:25;;;;;;;7.00;5.88;;;;;;;1.93;89.24;101849.44;4970207;28;20025;-89
2021/01/05 00:59:50;;;;;;;9.90;6.60;;;;;;;1.91;88.97;101851.28;4974260;28;20489;-89
2021/01/05 01:02:16;;;;;;;9.20;6.78;;;;;;;1.87;88.97;101842.69;4975185;28;20045;-89
2021/01/05 01:04:41;;;;;;;9.50;6.40;;;;;;;1.89;88.56;101846.09;4974987;28;20050;-89
2021/01/05 01:07:07;;;;;;;8.88;7.03;;;;;;;1.80;88.97;101833.34;4966355;28;20457;-89
2021/01/05 01:09:32;;;;;;;8.13;6.38;;;;;;;1.85;88.94;101834.00;4971710;28;20034;-90
2021/01/05 01:11:59;;;;;;;6.78;6.13;;;;;;;1.86;89.26;101843.59;4988592;28;20019;-75
2021/01/05 01:14:24;;;;;;;8.15;6.38;;;;;;;1.89;88.92;101845.22;4949681;29;20035;-89
2021/01/05 01:16:50;;;;;;;8.13;6.85;;;;;;;1.87;88.78;101853.22;4969685;28;20037;-89
2021/01/05 01:19:15;;;;;;;8.50;7.30;;;;;;;1.82;88.84;101852.56;4973725;28;20286;-74
2021/01/05 01:21:45;;;;;;;8.60;7.47;;;;;;;1.69;89.44;101847.03;4972980;28;20027;-75
2021/01/05 01:24:11;;;;;;;7.93;7.07;;;;;;;1.79;89.55;101850.06;4939451;28;20028;-89
2021/01/05 01:26:36;;;;;;;10.02;7.13;;;;;;;1.66;89.07;101812.97;4973070;28;20041;-88
2021/01/05 01:29:02;;;;;;;7.40;6.68;;;;;;;1.91;88.98;101857.38;4972831;28;20057;-88
2021/01/05 01:31:28;;;;;;;7.47;6.78;;;;;;;1.83;89.24;101849.84;4970775;28;20110;-88
2021/01/05 01:33:56;;;;;;;7.70;6.47;;;;;;;1.86;89.05;101853.25;4968684;28;20030;-76
2021/01/05 01:36:24;;;;;;;7.88;7.07;;;;;;;1.86;89.02;101853.25;4953746;28;20035;-89
2021/01/05 01:38:50;;;;;;;7.70;6.88;;;;;;;1.68;88.98;101834.78;4956536;28;20050;-75
2021/01/05 01:41:15;;;;;;;8.77;7.03;;;;;;;1.81;89.31;101851.72;4984947;28;20047;-88
2021/01/05 01:43:40;;;;;;;7.80;6.82;;;;;;;1.79;89.59;101856.19;4976620;28;20085;-74
2021/01/05 01:46:06;;;;;;;8.80;7.18;;;;;;;1.66;89.79;101820.84;4967642;28;20039;-88
2021/01/05 01:48:31;;;;;;;8.25;7.38;;;;;;;1.76;89.72;101858.97;4972780;28;20111;-75
2021/01/05 01:50:59;;;;;;;8.95;7.13;;;;;;;1.70;89.58;101846.06;4971256;28;20035;-90
2021/01/05 01:53:50;;;;;;;7.75;7.03;;;;;;;1.77;89.82;101852.78;4952490;28;20105;-90
2021/01/05 01:56:26;;;;;;;7.47;6.70;;;;;;;1.57;89.52;101806.34;4966717;28;20026;-90
2021/01/05 01:59:02;;;;;;;7.47;6.78;;;;;;;1.82;89.49;101850.81;4972647;28;20045;-89
2021/01/05 02:01:33;;;;;;;8.13;6.72;;;;;;;1.80;89.85;101847.38;4952594;28;20027;-90
2021/01/05 02:04:22;;;;;;;9.02;7.68;;;;;;;1.83;89.78;101855.13;4970855;28;20039;-75
2021/01/05 02:07:02;;;;;;;;;;;;;;;1.79;90.43;101844.81;4970320;28;20027;-89
2021/01/05 02:09:45;;;;;;;9.30;7.38;;;;;;;1.79;90.54;101848.31;4972967;28;19914;-75
2021/01/05 02:12:22;;;;;;;8.68;7.63;;;;;;;1.77;90.39;101839.63;4958053;28;20029;-89
2021/01/05 02:14:51;;;;;;;9.80;7.75;;;;;;;1.72;90.74;101838.97;4957098;28;20027;-88
2021/01/05 02:17:41;;;;;;;11.70;8.18;;;;;;;1.73;90.66;101838.03;4971993;28;20034;-88
2021/01/05 02:20:12;;;;;;;9.18;8.27;;;;;;;1.77;90.54;101844.88;4972154;28;20042;-75
2021/01/05 02:22:43;;;;;;;10.00;8.20;;;;;;;1.59;90.61;101811.50;4937931;28;20044;-89
2021/01/05 02:25:23;;;;;;;8.73;7.82;;;;;;;1.62;90.39;101814.00;4958496;28;20461;-90
2021/01/05 02:27:51;;;;;;;10.65;8.20;;;;;;;1.43;90.82;101800.84;4958835;28;20114;-75
2021/01/05 02:30:19;;;;;;;8.93;8.02;;;;;;;1.71;90.65;101846.94;4937095;28;20457;-87
2021/01/05 02:33:06;;;;;;;10.63;8.30;;;;;;;1.74;90.77;101846.81;4958795;28;20030;-88
2021/01/05 02:35:40;;;;;;;10.60;8.35;;;;;;;1.73;90.92;101843.31;4965472;28;20109;-76
2021/01/05 02:38:48;;;;;;;10.77;8.43;;;;;;;1.58;90.95;101815.06;4972016;28;20154;-89
2021/01/05 02:41:14;;;;;;;10.13;8.95;;;;;;;1.78;90.93;101841.34;4945967;28;20133;-89
2021/01/05 02:43:45;;;;;;;8.93;7.93;;;;;;;1.76;90.37;101840.53;4972504;28;20477;-89
2021/01/05 02:46:53;;;;;;;8.75;7.85;;;;;;;1.55;90.79;101808.19;4971257;28;20445;-88
2021/01/05 02:49:31;;;;;;;10.55;7.85;;;;;;;1.11;90.32;101719.88;4951544;28;20121;-90
2021/01/05 02:52:14;;;;;;;9.65;8.15;;;;;;;1.74;90.73;101829.22;4954262;28;20039;-75
2021/01/05 02:55:17;;;;;;;10.25;8.10;;;;;;;1.78;90.35;101836.06;4954221;28;20023;-90
2021/01/05 02:57:50;;;;;;;11.45;8.27;;;;;;;1.78;90.18;101835.19;4966840;28;20046;-90
2021/01/05 03:00:48;;;;;;;10.20;7.78;;;;;;;1.72;90.11;101831.06;4968954;28;20034;-89
2021/01/05 03:03:23;;;;;;;;;;;;;;;1.74;90.45;101841.56;4960155;28;20031;-89
2021/01/05 03:05:50;;;;;;;9.43;8.43;;;;;;;1.72;91.00;101832.88;4966494;28;19917;-90
2021/01/05 03:08:17;;;;;;;9.25;8.23;;;;;;;1.71;90.51;101832.00;4956886;28;20027;-88
2021/01/05 03:10:50;;;;;;;11.25;8.85;;;;;;;1.68;90.76;101834.78;4939168;28;20034;-89
2021/01/05 03:13:23;;;;;;;10.25;8.38;;;;;;;1.72;90.75;101825.81;4971696;28;20031;-89
2021/01/05 03:15:57;;;;;;;9.52;8.52;;;;;;;1.74;90.76;101821.34;4955997;28;20039;-88
2021/01/05 03:18:47;;;;;;;9.65;8.57;;;;;;;1.77;89.80;101831.72;4957237;28;20026;-89
2021/01/05 03:21:24;;;;;;;9.07;8.00;;;;;;;1.63;90.08;101806.03;4984164;28;20055;-88
2021/01/05 03:23:50;;;;;;;9.18;8.02;;;;;;;1.57;89.55;101787.91;4967544;28;20094;-89
2021/01/05 03:26:15;;;;;;;10.38;8.30;;;;;;;1.80;89.72;101826.31;4955153;28;20031;-89
2021/01/05 03:28:41;;;;;;;10.68;8.98;;;;;;;1.65;89.55;101809.47;4969129;28;20034;-88
2021/01/05 03:31:15;;;;;;;11.25;9.13;;;;;;;1.78;89.38;101817.66;4952072;28;20027;-89
2021/01/05 03:33:40;;;;;;;11.20;8.40;;;;;;;1.79;89.87;101826.38;4944295;28;20445;-75
2021/01/05 03:36:06;;;;;;;10.10;8.63;;;;;;;1.13;89.51;101709.28;4957187;28;20046;-89
2021/01/05 03:38:31;;;;;;;9.43;8.43;;;;;;;1.82;89.83;101823.59;4968703;28;20063;-75
2021/01/05 03:40:57;;;;;;;10.60;8.45;;;;;;;1.86;89.47;101833.09;4952770;28;20069;-75
2021/01/05 03:43:22;;;;;;;10.68;8.80;;;;;;;1.80;89.66;101820.19;4953060;28;20038;-89
2021/01/05 03:45:48;;;;;;;10.18;8.32;;;;;;;1.47;89.63;101773.50;4953655;28;20027;-89
2021/01/05 03:48:13;;;;;;;9.35;8.30;;;;;;;1.83;89.56;101820.91;4959920;28;20474;-88
2021/01/05 03:50:39;;;;;;;10.38;8.25;;;;;;;1.80;89.41;101821.06;4966961;28;20043;-88
2021/01/05 03:53:04;;;;;;;8.82;7.93;;;;;;;1.80;89.73;101821.06;4965739;28;20093;-87
2021/01/05 03:55:30;;;;;;;10.70;8.32;;;;;;;1.88;89.35;101820.69;4966861;28;20031;-88
2021/01/05 03:57:55;;;;;;;10.73;8.55;;;;;;;1.65;89.00;101782.31;4954371;28;20043;-75
2021/01/05 04:00:28;;;;;;;9.50;7.95;;;;;;;1.77;89.21;101804.53;4965478;28;20039;-75
2021/01/05 04:02:54;;;;;;;10.32;8.57;;;;;;;1.86;89.25;101834.84;4967047;28;20038;-88
2021/01/05 04:05:19;;;;;;;9.48;8.43;;;;;;;1.66;89.51;101790.13;4967873;28;20524;-88
2021/01/05 04:07:45;;;;;;;10.13;8.25;;;;;;;1.17;89.78;101709.06;4968182;28;20042;-87
2021/01/05 04:10:11;;;;;;;11.32;9.07;;;;;;;1.88;89.49;101810.19;4941985;28;20045;-87
2021/01/05 04:12:37;;;;;;;10.27;8.57;;;;;;;1.80;89.66;101809.66;4970560;28;20061;-88
2021/01/05 04:15:07;;;;;;;9.68;8.38;;;;;;;1.49;89.75;101745.34;4938032;28;20588;-88
2021/01/05 04:17:32;;;;;;;9.45;8.40;;;;;;;1.92;89.68;101803.81;4967844;28;20042;-87
2021/01/05 04:19:58;;;;;;;10.63;8.98;;;;;;;1.86;89.90;101805.88;4960535;28;20456;-88
2021/01/05 04:22:23;;;;;;;9.85;8.68;;;;;;;1.79;90.41;101795.66;4967022;28;20045;-87
2021/01/05 04:24:49;;;;;;;11.43;9.27;;;;;;;1.82;89.82;101798.16;4972463;28;20030;-87
2021/01/05 04:27:14;;;;;;;9.98;8.45;;;;;;;1.84;90.23;101796.28;4974331;28;20034;-88
2021/01/05 04:29:39;;;;;;;11.38;9.73;;;;;;;1.84;90.12;101800.72;4971045;28;20096;-75
2021/01/05 04:32:05;;;;;;;9.85;8.75;;;;;;;1.86;90.21;101796.22;4985166;28;20045;-88
2021/01/05 04:34:30;;;;;;;9.70;8.68;;;;;;;1.84;89.73;101806.81;4973423;28;20035;-88
2021/01/05 04:36:56;;;;;;;12.57;9.20;;;;;;;1.59;90.49;101772.06;4983481;28;20062;-87
2021/01/05 04:39:21;;;;;;;11.73;9.38;;;;;;;1.74;90.85;101802.91;4973147;28;20497;-88
2021/01/05 04:41:54;;;;;;;11.57;8.75;;;;;;;1.49;90.42;101751.44;4966664;28;20041;-88
2021/01/05 04:44:20;;;;;;;12.15;8.65;;;;;;;1.79;90.30;101795.66;4963779;28;20397;-87
2021/01/05 04:46:52;;;;;;;9.98;8.82;;;;;;;1.82;90.38;101797.28;4944732;28;20038;-88
2021/01/05 04:49:41;;;;;;;12.75;10.00;;;;;;;1.79;90.41;101800.94;4946448;28;20034;-88
2021/01/05 04:52:08;;;;;;;;;;;;;;;1.81;90.53;101793.81;4982215;28;20069;-75
2021/01/05 04:54:35;;;;;;;11.05;8.65;;;;;;;1.48;90.35;101744.47;4983341;28;19914;-88
2021/01/05 04:57:16;;;;;;;10.10;8.77;;;;;;;1.82;90.14;101792.91;4957396;28;20041;-76
2021/01/05 04:59:46;;;;;;;11.45;9.50;;;;;;;1.83;90.44;101794.56;4966776;28;20050;-87
2021/01/05 05:02:40;;;;;;;11.23;8.63;;;;;;;1.82;90.42;101790.25;4953638;28;20069;-88
2021/01/05 05:05:24;;;;;;;12.07;9.63;;;;;;;1.82;90.48;101798.16;4954190;28;20118;-87
2021/01/05 05:08:37;;;;;;;12.35;8.93;;;;;;;1.82;90.71;101792.91;4970599;28;20027;-76
2021/01/05 05:11:09;;;;;;;10.75;8.82;;;;;;;1.77;91.15;101797.50;4972089;28;20026;-87
2021/01/05 05:13:47;;;;;;;12.13;9.25;;;;;;;1.81;90.52;101798.22;4938933;28;20097;-76
2021/01/05 05:16:54;;;;;;;12.02;9.18;;;;;;;1.85;91.04;101799.78;4964844;28;20073;-85
2021/01/05 05:19:35;;;;;;;10.93;8.53;;;;;;;1.89;90.58;101800.47;4955973;28;20048;-86
2021/01/05 05:22:27;;;;;;;11.30;9.40;;;;;;;1.01;90.57;101656.34;4944627;28;20031;-87
2021/01/05 05:24:55;;;;;;;10.63;8.60;;;;;;;1.79;90.82;101797.44;4965374;28;20093;-86
2021/01/05 05:27:30;;;;;;;11.43;9.23;;;;;;;1.86;90.34;101812.03;4970079;28;20027;-87
2021/01/05 05:30:01;;;;;;;13.13;9.48;;;;;;;1.86;90.52;101809.38;4954971;28;20537;-86
2021/01/05 05:32:36;;;;;;;11.32;9.70;;;;;;;1.83;90.60;101815.63;4970024;28;20057;-87
2021/01/05 05:35:04;;;;;;;12.32;9.07;;;;;;;1.84;90.60;101821.75;4972138;28;20066;-75
2021/01/05 05:38:04;;;;;;;12.63;9.75;;;;;;;1.82;90.59;101818.34;4971938;28;20065;-87
2021/01/05 05:40:51;;;;;;;11.98;9.30;;;;;;;1.82;90.84;101821.84;4939421;29;20054;-87
2021/01/05 05:43:38;;;;;;;11.27;8.83;;;;;;;1.81;90.78;101829.78;4954007;28;20049;-86
2021/01/05 05:46:13;;;;;;;12.35;9.02;;;;;;;1.90;90.50;101825.88;4941924;28;20136;-87
2021/01/05 05:48:48;;;;;;;13.23;10.13;;;;;;;1.87;90.72;101829.53;4979650;28;20057;-88
2021/01/05 05:51:20;;;;;;;14.98;10.07;;;;;;;1.82;90.78;101824.47;4973701;28;20041;-75
2021/01/05 05:53:53;;;;;;;14.50;10.25;;;;;;;1.46;90.70;101767.38;4929115;28;20025;-82
2021/01/05 05:56:18;;;;;;;11.60;9.35;;;;;;;1.86;91.26;101829.56;4957180;28;20034;-86
2021/01/05 05:58:46;;;;;;;14.35;9.88;;;;;;;1.90;90.53;101831.16;4972412;28;20130;-87
2021/01/05 06:01:17;;;;;;;14.50;10.52;;;;;;;1.87;90.74;101826.03;4965323;28;20027;-87
2021/01/05 06:03:42;;;;;;;13.88;10.38;;;;;;;1.73;90.85;101806.47;4957775;28;20027;-86
2021/01/05 06:06:08;;;;;;;12.85;9.80;;;;;;;1.63;90.82;101792.88;4948650;28;20879;-86
2021/01/05 06:08:33;;;;;;;15.52;10.80;;;;;;;1.94;90.53;101841.47;4972515;28;20063;-88
2021/01/05 06:10:58;;;;;;;14.02;10.70;;;;;;;1.91;90.58;101854.75;4973937;28;20085;-88
2021/01/05 06:13:24;;;;;;;15.68;11.23;;;;;;;1.91;90.77;101849.50;4972933;28;20038;-89
2021/01/05 06:15:49;;;;;;;15.32;11.20;;;;;;;1.73;90.94;101813.53;4971214;28;20445;-75
2021/01/05 06:18:16;;;;;;;14.95;11.50;;;;;;;1.88;91.18;101849.66;4973669;28;20023;-88
2021/01/05 06:20:41;;;;;;;15.70;11.52;;;;;;;1.76;90.75;101830.00;4955690;28;20468;-88
2021/01/05 06:23:07;;;;;;;16.77;11.70;;;;;;;1.94;90.90;101854.63;4952499;29;20108;-88
2021/01/05 06:25:33;;;;;;;16.85;11.63;;;;;;;0.92;90.94;101717.25;4969059;28;20042;-88
2021/01/05 06:27:58;;;;;;;17.15;12.00;;;;;;;1.79;91.17;101827.25;4997063;28;20095;-88
2021/01/05 06:30:24;;;;;;;18.08;12.23;;;;;;;1.64;91.36;101805.13;4989353;28;20063;-87
2021/01/05 06:32:49;;;;;;;18.38;12.00;;;;;;;1.72;91.03;101803.91;4980396;28;20030;-87
2021/01/05 06:35:16;;;;;;;16.95;11.60;;;;;;;1.70;91.17;101809.22;4976097;28;20062;-88
2021/01/05 06:37:42;;;;;;;16.30;11.07;;;;;;;1.99;91.11;101855.28;4996348;28;20425;-88
2021/01/05 06:40:08;;;;;;;19.10;12.80;;;;;;;2.00;91.20;101866.63;4959043;28;20035;-75
2021/01/05 06:42:33;;;;;;;18.55;12.38;;;;;;;1.84;91.08;101834.94;4967825;28;20047;-88
2021/01/05 06:44:59;;;;;;;19.75;12.57;;;;;;;1.99;91.40;101860.53;4990059;28;20085;-89
2021/01/05 06:47:24;;;;;;;17.45;12.93;;;;;;;1.98;91.27;101864.09;4970618;28;20033;-88
2021/01/05 06:49:50;;;;;;;19.55;12.73;;;;;;;1.98;91.80;101864.09;4973004;28;20772;-88
2021/01/05 06:52:15;;;;;;;19.00;13.07;;;;;;;1.91;92.14;101862.66;4969292;28;20042;-75
2021/01/05 06:54:41;;;;;;;18.02;12.80;;;;;;;1.79;92.11;101835.16;4966640;28;20413;-75
2021/01/05 06:57:06;;;;;;;18.90;13.18;;;;;;;1.99;92.05;101872.81;4952548;28;20085;-88
2021/01/05 06:59:32;;;;;;;21.35;13.30;;;;;;;1.96;91.90;101859.84;4973327;28;20030;-88
2021/01/05 07:02:02;;;;;;;19.20;12.60;;;;;;;1.86;92.16;101837.47;4953270;28;20042;-88
2021/01/05 07:04:28;;;;;;;19.40;12.43;;;;;;;1.71;92.43;101823.25;4985488;28;20081;-88
2021/01/05 07:06:54;;;;;;;18.15;12.98;;;;;;;1.91;91.88;101859.19;4949747;28;20027;-87
2021/01/05 07:09:20;;;;;;;16.25;12.23;;;;;;;1.69;91.86;101812.81;4980383;28;20050;-88
2021/01/05 07:11:46;;;;;;;19.08;13.15;;;;;;;1.89;92.61;101856.63;4936296;28;20030;-89
2021/01/05 07:14:12;;;;;;;22.85;14.30;;;;;;;1.79;92.62;101848.31;4967592;28;20035;-89
2021/01/05 07:16:38;;;;;;;20.60;13.40;;;;;;;1.93;92.60;101870.50;4987624;28;20046;-90
2021/01/05 07:19:03;;;;;;;21.42;13.75;;;;;;;1.69;92.46;101828.59;4971822;28;20082;-89
2021/01/05 07:21:29;;;;;;;19.70;13.23;;;;;;;1.95;92.33;101866.03;4976695;28;20161;-75
2021/01/05 07:23:54;;;;;;;21.30;14.38;;;;;;;1.93;92.53;101873.97;4971194;28;20039;-92
2021/01/05 07:26:20;;;;;;;21.98;14.48;;;;;;;1.90;92.80;101862.75;4956561;28;20544;-93
2021/01/05 07:28:45;;;;;;;21.17;14.48;;;;;;;1.84;92.70;101853.34;4972354;28;20042;-92
2021/01/05 07:31:11;;;;;;;24.98;15.57;;;;;;;1.84;93.04;101856.81;4996677;28;20031;-92
2021/01/05 07:33:37;;;;;;;22.48;14.73;;;;;;;1.44;93.02;101792.88;4987499;28;20034;-93
2021/01/05 07:36:39;;;;;;;26.63;16.77;;;;;;;1.64;93.24;101823.53;4955815;28;20042;-93
2021/01/05 07:39:17;;;;;;;26.02;16.45;;;;;;;1.87;93.51;101876.03;4947965;28;20521;-92
2021/01/05 07:41:43;;;;;;;23.67;15.88;;;;;;;1.88;94.15;101888.28;4956235;28;20534;-92
2021/01/05 07:44:08;;;;;;;23.55;15.82;;;;;;;1.90;93.32;101879.38;4971056;28;20114;-91
2021/01/05 07:46:34;;;;;;;26.40;16.33;;;;;;;1.81;93.38;101862.25;4954302;28;20165;-91
2021/01/05 07:49:00;;;;;;;23.83;16.67;;;;;;;1.15;93.16;101765.28;4953976;28;20509;-93
2021/01/05 07:51:25;;;;;;;22.80;15.75;;;;;;;1.98;93.37;101882.53;4954892;28;20053;-74
2021/01/05 07:53:51;;;;;;;23.30;15.73;;;;;;;1.99;93.54;101886.00;4950748;28;20497;-94
2021/01/05 07:56:16;;;;;;;24.77;16.13;;;;;;;1.70;93.49;101851.34;4982242;28;20050;-91
2021/01/05 07:58:41;;;;;;;23.85;16.50;;;;;;;1.96;93.76;101891.44;4983460;28;20628;-91
2021/01/05 08:01:07;;;;;;;24.40;16.58;;;;;;;1.85;94.10;101876.13;4965028;28;20031;-92
2021/01/05 08:03:32;;;;;;;25.73;16.70;;;;;;;1.74;93.83;101855.53;4965723;28;20039;-93
2021/01/05 08:05:58;;;;;;;24.60;15.57;;;;;;;1.87;93.87;101876.03;4967440;28;20346;-93
2021/01/05 08:08:24;;;;;;;22.15;15.10;;;;;;;2.01;93.78;101894.69;4952692;28;20516;-87
2021/01/05 08:10:49;;;;;;;21.38;14.55;;;;;;;2.04;93.93;101897.19;4965360;28;20113;-85
2021/01/05 08:13:15;;;;;;;24.20;14.55;;;;;;;2.05;93.60;101900.66;4965023;28;20529;-75
2021/01/05 08:15:40;;;;;;;21.85;15.02;;;;;;;1.89;93.20;101875.06;4966694;28;20401;-85
2021/01/05 08:18:10;;;;;;;18.20;12.88;;;;;;;2.12;93.17;101902.94;4973396;28;20070;-84
2021/01/05 08:20:35;;;;;;;21.85;14.23;;;;;;;2.10;93.52;101904.78;4967961;28;20042;-85
2021/01/05 08:23:01;;;;;;;20.38;14.20;;;;;;;2.08;93.94;101906.66;4974178;28;20034;-85
2021/01/05 08:25:27;;;;;;;20.85;13.43;;;;;;;2.12;93.87;101909.97;4961488;28;20027;-84
2021/01/05 08:27:53;;;;;;;19.85;13.60;;;;;;;1.91;93.54;101867.09;4968757;28;20058;-75
2021/01/05 08:30:20;;;;;;;21.85;13.70;;;;;;;2.15;93.79;101909.84;4947321;28;20061;-75
2021/01/05 08:32:46;;;;;;;21.30;13.77;;;;;;;2.12;93.91;101909.97;4950546;28;20528;-84
2021/01/05 08:35:12;;;;;;;20.83;14.15;;;;;;;2.14;94.06;101908.97;4962147;28;20024;-84
2021/01/05 08:37:38;;;;;;;20.23;13.93;;;;;;;2.16;93.98;101916.81;4960816;28;20521;-84
2021/01/05 08:40:05;;;;;;;19.38;14.25;;;;;;;2.07;93.91;101885.63;4946471;28;20064;-84
2021/01/05 08:42:31;;;;;;;22.73;14.40;;;;;;;2.20;93.63;101907.00;4961680;28;20030;-83
2021/01/05 08:44:56;;;;;;;19.25;13.20;;;;;;;1.88;93.22;101857.56;4968814;28;20485;-83
2021/01/05 08:47:22;;;;;;;19.05;13.52;;;;;;;2.25;93.16;101916.38;4946418;28;20122;-85
2021/01/05 08:49:47;;;;;;;21.60;13.35;;;;;;;2.25;92.76;101918.16;4943589;28;20062;-85
2021/01/05 08:52:13;;;;;;;21.90;13.82;;;;;;;2.24;93.15;101911.19;4957115;28;20788;-78
2021/01/05 08:54:38;;;;;;;23.80;14.27;;;;;;;2.26;92.63;101914.59;4959739;28;20074;-81
2021/01/05 08:57:04;;;;;;;23.90;15.05;;;;;;;2.27;92.02;101911.03;4948938;28;20053;-84
2021/01/05 08:59:30;;;;;;;19.55;13.77;;;;;;;2.28;92.28;101907.47;4957917;28;20494;-83
2021/01/05 09:01:55;;;;;;;21.38;14.45;;;;;;;2.10;92.34;101885.50;4959543;28;20034;-82
2021/01/05 09:04:21;;;;;;;19.38;13.65;;;;;;;2.36;92.36;101910.63;4945642;28;20046;-82
2021/01/05 09:06:47;;;;;;;20.58;14.30;;;;;;;2.16;91.87;101879.09;4958969;28;20049;-82
2021/01/05 09:09:13;;;;;;;20.50;14.30;;;;;;;2.39;91.65;101907.81;4938081;28;20059;-82
2021/01/05 09:11:40;;;;;;;20.13;13.75;;;;;;;2.26;92.00;101889.13;4954708;28;20113;-82
2021/01/05 09:14:05;;;;;;;19.80;13.73;;;;;;;2.43;92.03;101911.16;4964710;28;20035;-82
2021/01/05 09:16:31;;;;;;;18.08;13.18;;;;;;;2.40;91.77;101914.78;4949554;28;20034;-82
2021/01/05 09:18:57;;;;;;;19.10;12.57;;;;;;;2.45;91.63;101912.78;4959221;28;20125;-82
2021/01/05 09:21:24;;;;;;;17.30;11.90;;;;;;;2.32;91.55;101881.81;4958760;28;20738;-82
2021/01/05 09:23:53;;;;;;;15.65;11.70;;;;;;;2.19;91.28;101858.72;4964622;28;20125;-82
2021/01/05 09:26:25;;;;;;;16.80;11.60;;;;;;;2.28;91.46;101874.09;4961315;28;20037;-81
2021/01/05 09:28:50;;;;;;;15.57;11.13;;;;;;;2.42;91.59;101905.03;4952044;28;20032;-83
2021/01/05 09:31:16;;;;;;;16.63;11.32;;;;;;;2.42;91.95;101897.13;4938080;28;20039;-77
2021/01/05 09:33:42;;;;;;;15.90;11.43;;;;;;;2.42;92.33;101902.41;4963181;28;20509;-76
2021/01/05 09:36:08;;;;;;;16.80;11.18;;;;;;;1.97;92.50;101846.59;4933410;28;20051;-76
2021/01/05 09:38:34;;;;;;;16.00;11.23;;;;;;;2.38;92.12;101895.56;4962955;28;20173;-81
2021/01/05 09:40:59;;;;;;;16.48;11.27;;;;;;;2.35;92.47;101887.81;4967297;28;20054;-82
2021/01/05 09:43:25;;;;;;;16.88;11.80;;;;;;;2.59;92.77;101933.19;4944054;28;20038;-81
2021/01/05 09:45:51;;;;;;;16.02;11.57;;;;;;;2.47;93.02;101906.59;4959518;28;20512;-82
2021/01/05 09:48:16;;;;;;;18.70;12.50;;;;;;;2.56;92.89;101930.72;4949191;28;20338;-82
2021/01/05 09:50:43;;;;;;;16.85;11.40;;;;;;;2.58;93.10;101930.66;4936074;28;20489;-81
2021/01/05 09:53:09;;;;;;;19.83;12.60;;;;;;;2.30;93.89;101913.53;4967339;28;20035;-82
2021/01/05 09:55:35;;;;;;;18.52;12.57;;;;;;;2.45;94.24;101933.88;4964145;28;20026;-82
2021/01/05 09:58:00;;;;;;;19.33;12.73;;;;;;;2.18;94.78;101893.03;4970106;28;20087;-82
2021/01/05 10:00:26;;;;;;;19.92;13.02;;;;;;;2.43;94.83;101935.72;4951056;28;20027;-75
2021/01/05 10:02:52;;;;;;;21.08;14.02;;;;;;;2.40;94.59;101929.75;4961579;28;20046;-76
2021/01/05 10:05:17;;;;;;;20.02;13.63;;;;;;;2.44;95.09;101936.59;4961218;28;20019;-76
2021/01/05 10:07:43;;;;;;;20.13;13.32;;;;;;;2.48;94.29;101932.03;4966436;28;20031;-77
2021/01/05 10:10:20;;;;;;;19.00;12.73;;;;;;;2.46;94.68;101932.06;4947660;28;20145;-76
2021/01/05 10:12:45;;;;;;;18.77;13.15;;;;;;;2.41;94.83;101929.66;4934661;28;20027;-76
2021/01/05 10:15:11;;;;;;;20.38;12.73;;;;;;;2.28;94.84;101905.72;4967607;28;20432;-82
2021/01/05 10:17:37;;;;;;;20.38;12.23;;;;;;;2.10;94.51;101877.59;4964177;28;20022;-83
2021/01/05 10:20:04;;;;;;;22.35;13.93;;;;;;;2.44;94.42;101924.25;4966516;28;20023;-83
2021/01/05 10:22:30;;;;;;;18.88;12.23;;;;;;;2.49;94.51;101926.66;4965103;28;20071;-83
2021/01/05 10:24:56;;;;;;;22.75;13.20;;;;;;;1.79;94.15;101800.06;4968212;28;20335;-83
2021/01/05 10:27:21;;;;;;;19.67;12.77;;;;;;;2.57;93.99;101916.63;4964345;28;20027;-82
2021/01/05 10:29:47;;;;;;;19.20;12.77;;;;;;;2.64;94.05;101922.47;4961780;28;20125;-83
2021/01/05 10:32:13;;;;;;;18.83;13.27;;;;;;;2.55;93.49;101907.94;4960651;28;20035;-82
2021/01/05 10:34:38;;;;;;;18.90;13.48;;;;;;;2.53;93.63;101886.06;4946156;28;20485;-82
2021/01/05 10:37:05;;;;;;;18.65;11.95;;;;;;;2.78;92.86;101913.84;4960401;28;20820;-82
2021/01/05 10:39:32;;;;;;;20.08;12.63;;;;;;;2.91;92.86;101919.38;4960614;28;20046;-82
2021/01/05 10:41:57;;;;;;;19.45;11.75;;;;;;;2.60;91.71;101849.72;4963122;28;20447;-83
2021/01/05 10:44:23;;;;;;;15.07;11.68;;;;;;;3.04;91.52;101912.56;4962226;28;20118;-83
2021/01/05 10:46:49;;;;;;;18.75;12.02;;;;;;;3.09;91.32;101916.72;4949878;28;20114;-82
2021/01/05 10:49:14;;;;;;;15.45;10.30;;;;;;;3.16;91.38;101916.34;4962021;28;20125;-82
2021/01/05 10:51:47;;;;;;;17.02;11.68;;;;;;;3.06;91.00;101896.66;4966661;28;20507;-83
2021/01/05 10:54:13;;;;;;;19.33;13.45;;;;;;;3.11;90.46;101914.88;4947479;28;20030;-76
2021/01/05 10:56:38;;;;;;;16.25;11.73;;;;;;;3.06;90.99;101905.41;4966240;28;20030;-83
2021/01/05 10:59:04;;;;;;;16.63;11.80;;;;;;;3.05;90.90;101906.31;4958058;28;20117;-83
2021/01/05 11:01:30;;;;;;;17.35;12.10;;;;;;;2.85;91.24;101866.94;4962189;28;20712;-83
2021/01/05 11:03:55;;;;;;;18.10;11.50;;;;;;;3.11;91.05;101906.97;4941011;28;20027;-77
2021/01/05 11:06:21;;;;;;;15.93;10.80;;;;;;;2.44;90.56;101804.84;4956840;28;20122;-77
2021/01/05 11:08:46;;;;;;;16.58;11.55;;;;;;;2.97;90.40;101894.50;4963164;28;20117;-76
2021/01/05 11:11:17;;;;;;;21.70;16.35;;;;;;;2.80;91.17;101882.13;4965498;28;20118;-82
2021/01/05 11:13:43;;;;;;;20.75;14.93;;;;;;;2.98;90.74;101899.66;4977719;28;20098;-83
2021/01/05 11:16:09;;;;;;;21.45;12.85;;;;;;;3.04;91.11;101902.00;4968224;28;20042;-83
2021/01/05 11:18:34;;;;;;;16.33;10.98;;;;;;;3.04;90.63;101907.28;4968490;28;20125;-83
2021/01/05 11:21:00;;;;;;;16.98;10.77;;;;;;;3.10;91.14;101894.69;4965668;28;20122;-83
2021/01/05 11:23:25;;;;;;;12.93;9.45;;;;;;;3.00;90.41;101874.09;4948258;28;20046;-83
2021/01/05 11:25:51;;;;;;;12.93;9.60;;;;;;;3.11;90.84;101892.00;4963355;28;20045;-84
2021/01/05 11:28:16;;;;;;;10.77;8.27;;;;;;;3.07;91.00;101898.34;4964249;28;20113;-84
2021/01/05 11:30:42;;;;;;;11.95;8.88;;;;;;;3.06;90.87;101892.22;4965646;28;20114;-84
2021/01/05 11:33:07;;;;;;;12.13;8.02;;;;;;;3.03;90.53;101897.66;4956877;28;20038;-77